sensor_id;sensor_type;location;lat;lon;timestamp;temperature;humidity
27619;DHT22;15039;50.830;4.730;2022-07-29T00:00:07;20.00;97.10
27619;DHT22;15039;50.830;4.730;2022-07-29T00:02:33;20.00;97.10
27619;DHT22;15039;50.830;4.730;2022-07-29T00:04:59;20.10;97.00
27619;DHT22;15039;50.830;4.730;2022-07-29T00:07:24;20.10;97.00
27619;DHT22;15039;50.830;4.730;2022-07-29T00:09:50;20.00;97.00
27619;DHT22;15039;50.830;4.730;2022-07-29T00:12:16;19.90;97.20
27619;DHT22;15039;50.830;4.730;2022-07-29T00:14:42;20.00;97.20
27619;DHT22;15039;50.830;4.730;2022-07-29T00:17:07;20.20;96.90
27619;DHT22;15039;50.830;4.730;2022-07-29T00:19:33;20.10;97.00
27619;DHT22;15039;50.830;4.730;2022-07-29T00:22:00;20.00;97.00
27619;DHT22;15039;50.830;4.730;2022-07-29T00:24:25;20.00;97.10
27619;DHT22;15039;50.830;4.730;2022-07-29T00:26:51;20.00;97.10
27619;DHT22;15039;50.830;4.730;2022-07-29T00:29:17;19.90;97.30
27619;DHT22;15039;50.830;4.730;2022-07-29T00:31:43;19.80;97.40
27619;DHT22;15039;50.830;4.730;2022-07-29T00:34:08;19.90;97.40
27619;DHT22;15039;50.830;4.730;2022-07-29T00:36:54;20.00;97.30
27619;DHT22;15039;50.830;4.730;2022-07-29T00:39:20;20.10;97.00
27619;DHT22;15039;50.830;4.730;2022-07-29T00:41:45;19.90;97.40
27619;DHT22;15039;50.830;4.730;2022-07-29T00:44:11;19.70;97.80
27619;DHT22;15039;50.830;4.730;2022-07-29T00:46:37;19.80;97.70
27619;DHT22;15039;50.830;4.730;2022-07-29T00:49:02;19.70;97.70
27619;DHT22;15039;50.830;4.730;2022-07-29T00:51:28;19.50;98.10
27619;DHT22;15039;50.830;4.730;2022-07-29T00:53:55;19.40;98.30
27619;DHT22;15039;50.830;4.730;2022-07-29T00:56:21;19.60;98.10
27619;DHT22;15039;50.830;4.730;2022-07-29T00:58:48;19.60;98.20
27619;DHT22;15039;50.830;4.730;2022-07-29T01:01:15;19.30;98.60
27619;DHT22;15039;50.830;4.730;2022-07-29T01:03:41;19.50;98.50
27619;DHT22;15039;50.830;4.730;2022-07-29T01:06:06;19.40;98.50
27619;DHT22;15039;50.830;4.730;2022-07-29T01:08:32;19.40;98.60
27619;DHT22;15039;50.830;4.730;2022-07-29T01:11:00;19.40;98.70
27619;DHT22;15039;50.830;4.730;2022-07-29T01:13:26;19.40;98.80
27619;DHT22;15039;50.830;4.730;2022-07-29T01:16:15;19.40;98.70
27619;DHT22;15039;50.830;4.730;2022-07-29T01:18:47;19.50;98.70
27619;DHT22;15039;50.830;4.730;2022-07-29T01:27:31;19.30;98.90
27619;DHT22;15039;50.830;4.730;2022-07-29T01:29:59;19.20;99.10
27619;DHT22;15039;50.830;4.730;2022-07-29T01:32:29;19.00;99.30
27619;DHT22;15039;50.830;4.730;2022-07-29T01:35:04;19.10;99.30
27619;DHT22;15039;50.830;4.730;2022-07-29T01:37:43;19.10;99.20
27619;DHT22;15039;50.830;4.730;2022-07-29T01:42:46;18.90;99.40
27619;DHT22;15039;50.830;4.730;2022-07-29T01:45:18;18.80;99.50
27619;DHT22;15039;50.830;4.730;2022-07-29T01:47:58;18.70;99.60
27619;DHT22;15039;50.830;4.730;2022-07-29T01:50:33;18.70;99.60
27619;DHT22;15039;50.830;4.730;2022-07-29T01:53:05;18.60;99.80
27619;DHT22;15039;50.830;4.730;2022-07-29T01:55:36;18.60;99.90
27619;DHT22;15039;50.830;4.730;2022-07-29T01:58:05;18.60;99.90
27619;DHT22;15039;50.830;4.730;2022-07-29T02:00:33;18.70;99.90
27619;DHT22;15039;50.830;4.730;2022-07-29T02:03:03;18.60;99.90
27619;DHT22;15039;50.830;4.730;2022-07-29T02:05:31;18.60;99.90
27619;DHT22;15039;50.830;4.730;2022-07-29T02:07:58;18.60;99.90
27619;DHT22;15039;50.830;4.730;2022-07-29T02:10:27;18.80;99.90
27619;DHT22;15039;50.830;4.730;2022-07-29T02:12:56;18.80;99.90
27619;DHT22;15039;50.830;4.730;2022-07-29T02:15:24;18.70;99.90
27619;DHT22;15039;50.830;4.730;2022-07-29T02:17:58;18.70;99.90
27619;DHT22;15039;50.830;4.730;2022-07-29T02:20:25;18.60;99.90
27619;DHT22;15039;50.830;4.730;2022-07-29T02:22:53;18.50;99.90
27619;DHT22;15039;50.830;4.730;2022-07-29T02:25:21;18.50;99.90
27619;DHT22;15039;50.830;4.730;2022-07-29T02:27:49;18.60;99.90
27619;DHT22;15039;50.830;4.730;2022-07-29T02:30:16;18.50;99.90
27619;DHT22;15039;50.830;4.730;2022-07-29T02:32:43;18.60;99.90
27619;DHT22;15039;50.830;4.730;2022-07-29T02:35:13;18.50;99.90
27619;DHT22;15039;50.830;4.730;2022-07-29T02:37:41;18.50;99.90
27619;DHT22;15039;50.830;4.730;2022-07-29T02:40:10;18.70;99.90
27619;DHT22;15039;50.830;4.730;2022-07-29T02:42:38;18.70;99.90
27619;DHT22;15039;50.830;4.730;2022-07-29T02:45:05;18.60;99.90
27619;DHT22;15039;50.830;4.730;2022-07-29T02:47:43;18.40;99.90
27619;DHT22;15039;50.830;4.730;2022-07-29T02:50:14;18.40;99.90
27619;DHT22;15039;50.830;4.730;2022-07-29T02:55:40;18.20;99.90
27619;DHT22;15039;50.830;4.730;2022-07-29T02:58:24;18.10;99.90
27619;DHT22;15039;50.830;4.730;2022-07-29T03:00:56;18.00;99.90
27619;DHT22;15039;50.830;4.730;2022-07-29T03:03:25;18.00;99.90
27619;DHT22;15039;50.830;4.730;2022-07-29T03:05:57;18.00;99.90
27619;DHT22;15039;50.830;4.730;2022-07-29T03:08:24;18.20;99.90
27619;DHT22;15039;50.830;4.730;2022-07-29T03:10:52;18.20;99.90
27619;DHT22;15039;50.830;4.730;2022-07-29T03:13:18;18.30;99.90
27619;DHT22;15039;50.830;4.730;2022-07-29T03:15:45;18.20;99.90
27619;DHT22;15039;50.830;4.730;2022-07-29T03:18:11;18.10;99.90
27619;DHT22;15039;50.830;4.730;2022-07-29T03:20:42;18.00;99.90
27619;DHT22;15039;50.830;4.730;2022-07-29T03:23:08;17.80;99.90
27619;DHT22;15039;50.830;4.730;2022-07-29T03:25:34;17.60;99.90
27619;DHT22;15039;50.830;4.730;2022-07-29T03:27:59;17.60;99.90
27619;DHT22;15039;50.830;4.730;2022-07-29T03:30:25;17.50;99.90
27619;DHT22;15039;50.830;4.730;2022-07-29T03:32:52;17.40;99.90
27619;DHT22;15039;50.830;4.730;2022-07-29T03:35:21;17.30;99.90
27619;DHT22;15039;50.830;4.730;2022-07-29T03:37:48;17.20;99.90
27619;DHT22;15039;50.830;4.730;2022-07-29T03:40:26;17.10;99.90
27619;DHT22;15039;50.830;4.730;2022-07-29T03:42:54;17.10;99.90
27619;DHT22;15039;50.830;4.730;2022-07-29T03:45:21;17.20;99.90
27619;DHT22;15039;50.830;4.730;2022-07-29T03:47:55;17.30;99.90
27619;DHT22;15039;50.830;4.730;2022-07-29T03:50:22;17.20;99.90
27619;DHT22;15039;50.830;4.730;2022-07-29T03:52:49;17.30;99.90
27619;DHT22;15039;50.830;4.730;2022-07-29T03:55:15;17.20;99.90
27619;DHT22;15039;50.830;4.730;2022-07-29T03:57:41;17.00;99.90
27619;DHT22;15039;50.830;4.730;2022-07-29T04:00:07;16.90;99.90
27619;DHT22;15039;50.830;4.730;2022-07-29T04:02:34;16.80;99.90
27619;DHT22;15039;50.830;4.730;2022-07-29T04:05:00;16.80;99.90
27619;DHT22;15039;50.830;4.730;2022-07-29T04:07:26;16.70;99.90
27619;DHT22;15039;50.830;4.730;2022-07-29T04:09:52;16.60;99.90
27619;DHT22;15039;50.830;4.730;2022-07-29T04:12:17;16.70;99.90
27619;DHT22;15039;50.830;4.730;2022-07-29T04:14:43;16.70;99.90
27619;DHT22;15039;50.830;4.730;2022-07-29T04:17:09;16.60;99.90
27619;DHT22;15039;50.830;4.730;2022-07-29T04:19:34;16.60;99.90
27619;DHT22;15039;50.830;4.730;2022-07-29T04:22:00;16.60;99.90
27619;DHT22;15039;50.830;4.730;2022-07-29T04:24:27;16.60;99.90
27619;DHT22;15039;50.830;4.730;2022-07-29T04:26:53;16.50;99.90
27619;DHT22;15039;50.830;4.730;2022-07-29T04:29:18;16.50;99.90
27619;DHT22;15039;50.830;4.730;2022-07-29T04:31:45;16.60;99.90
27619;DHT22;15039;50.830;4.730;2022-07-29T04:34:11;16.60;99.90
27619;DHT22;15039;50.830;4.730;2022-07-29T04:36:37;16.50;99.90
27619;DHT22;15039;50.830;4.730;2022-07-29T04:39:03;16.60;99.90
27619;DHT22;15039;50.830;4.730;2022-07-29T04:41:29;16.60;99.90
27619;DHT22;15039;50.830;4.730;2022-07-29T04:43:55;16.70;99.90
27619;DHT22;15039;50.830;4.730;2022-07-29T04:46:21;16.80;99.90
27619;DHT22;15039;50.830;4.730;2022-07-29T04:48:47;16.90;99.90
27619;DHT22;15039;50.830;4.730;2022-07-29T04:51:14;16.80;99.90
27619;DHT22;15039;50.830;4.730;2022-07-29T04:53:39;16.80;99.90
27619;DHT22;15039;50.830;4.730;2022-07-29T04:56:05;16.80;99.90
27619;DHT22;15039;50.830;4.730;2022-07-29T04:58:31;16.70;99.90
27619;DHT22;15039;50.830;4.730;2022-07-29T05:00:56;16.70;99.90
27619;DHT22;15039;50.830;4.730;2022-07-29T05:03:22;16.70;99.90
27619;DHT22;15039;50.830;4.730;2022-07-29T05:05:48;16.90;99.90
27619;DHT22;15039;50.830;4.730;2022-07-29T05:08:13;17.00;99.90
27619;DHT22;15039;50.830;4.730;2022-07-29T05:10:39;17.00;99.90
27619;DHT22;15039;50.830;4.730;2022-07-29T05:13:05;17.10;99.90
27619;DHT22;15039;50.830;4.730;2022-07-29T05:15:33;17.20;99.90
27619;DHT22;15039;50.830;4.730;2022-07-29T05:17:59;17.40;99.90
27619;DHT22;15039;50.830;4.730;2022-07-29T05:20:25;17.20;99.90
27619;DHT22;15039;50.830;4.730;2022-07-29T05:22:57;17.10;99.90
27619;DHT22;15039;50.830;4.730;2022-07-29T05:25:25;17.20;99.90
27619;DHT22;15039;50.830;4.730;2022-07-29T05:27:51;17.40;99.90
27619;DHT22;15039;50.830;4.730;2022-07-29T05:30:17;17.40;99.90
27619;DHT22;15039;50.830;4.730;2022-07-29T05:32:43;17.50;99.90
27619;DHT22;15039;50.830;4.730;2022-07-29T05:35:09;17.60;99.90
27619;DHT22;15039;50.830;4.730;2022-07-29T05:37:34;17.70;99.90
27619;DHT22;15039;50.830;4.730;2022-07-29T05:40:00;17.70;99.90
27619;DHT22;15039;50.830;4.730;2022-07-29T05:42:26;17.80;99.90
27619;DHT22;15039;50.830;4.730;2022-07-29T05:44:52;17.90;99.90
27619;DHT22;15039;50.830;4.730;2022-07-29T05:47:18;18.00;99.90
27619;DHT22;15039;50.830;4.730;2022-07-29T05:49:44;18.00;99.90
27619;DHT22;15039;50.830;4.730;2022-07-29T05:52:09;18.10;99.90
27619;DHT22;15039;50.830;4.730;2022-07-29T05:54:35;18.00;99.90
27619;DHT22;15039;50.830;4.730;2022-07-29T05:57:02;18.00;99.90
27619;DHT22;15039;50.830;4.730;2022-07-29T05:59:28;18.10;99.90
27619;DHT22;15039;50.830;4.730;2022-07-29T06:01:54;18.30;99.90
27619;DHT22;15039;50.830;4.730;2022-07-29T06:04:20;18.40;99.90
27619;DHT22;15039;50.830;4.730;2022-07-29T06:06:45;18.50;99.90
27619;DHT22;15039;50.830;4.730;2022-07-29T06:09:11;18.60;99.90
27619;DHT22;15039;50.830;4.730;2022-07-29T06:11:37;18.60;99.90
27619;DHT22;15039;50.830;4.730;2022-07-29T06:14:03;18.80;99.90
27619;DHT22;15039;50.830;4.730;2022-07-29T06:16:29;18.70;99.90
27619;DHT22;15039;50.830;4.730;2022-07-29T06:18:54;18.40;99.90
27619;DHT22;15039;50.830;4.730;2022-07-29T06:21:20;18.50;99.90
27619;DHT22;15039;50.830;4.730;2022-07-29T06:23:46;18.70;99.90
27619;DHT22;15039;50.830;4.730;2022-07-29T06:26:11;19.00;99.90
27619;DHT22;15039;50.830;4.730;2022-07-29T06:28:37;19.30;99.90
27619;DHT22;15039;50.830;4.730;2022-07-29T06:31:03;19.70;99.90
27619;DHT22;15039;50.830;4.730;2022-07-29T06:33:28;19.70;99.90
27619;DHT22;15039;50.830;4.730;2022-07-29T06:35:54;19.80;99.90
27619;DHT22;15039;50.830;4.730;2022-07-29T06:38:20;20.00;99.90
27619;DHT22;15039;50.830;4.730;2022-07-29T06:40:46;19.90;99.90
27619;DHT22;15039;50.830;4.730;2022-07-29T06:43:38;19.70;99.90
27619;DHT22;15039;50.830;4.730;2022-07-29T06:46:07;19.80;99.90
27619;DHT22;15039;50.830;4.730;2022-07-29T06:48:34;19.70;99.90
27619;DHT22;15039;50.830;4.730;2022-07-29T06:51:02;19.70;99.90
27619;DHT22;15039;50.830;4.730;2022-07-29T06:53:30;19.50;99.90
27619;DHT22;15039;50.830;4.730;2022-07-29T06:55:57;19.50;99.90
27619;DHT22;15039;50.830;4.730;2022-07-29T06:58:24;19.40;99.90
27619;DHT22;15039;50.830;4.730;2022-07-29T07:00:50;19.50;99.90
27619;DHT22;15039;50.830;4.730;2022-07-29T07:03:17;19.30;99.90
27619;DHT22;15039;50.830;4.730;2022-07-29T07:05:44;19.30;99.90
27619;DHT22;15039;50.830;4.730;2022-07-29T07:08:11;19.30;99.90
27619;DHT22;15039;50.830;4.730;2022-07-29T07:10:37;19.50;99.90
27619;DHT22;15039;50.830;4.730;2022-07-29T07:13:04;19.60;99.90
27619;DHT22;15039;50.830;4.730;2022-07-29T07:15:30;19.40;99.90
27619;DHT22;15039;50.830;4.730;2022-07-29T07:17:56;19.40;99.90
27619;DHT22;15039;50.830;4.730;2022-07-29T07:20:23;19.50;99.90
27619;DHT22;15039;50.830;4.730;2022-07-29T07:22:49;19.60;99.90
27619;DHT22;15039;50.830;4.730;2022-07-29T07:25:15;19.50;99.90
27619;DHT22;15039;50.830;4.730;2022-07-29T07:27:43;19.60;99.90
27619;DHT22;15039;50.830;4.730;2022-07-29T07:30:08;19.60;99.90
27619;DHT22;15039;50.830;4.730;2022-07-29T07:32:35;19.60;99.90
27619;DHT22;15039;50.830;4.730;2022-07-29T07:35:01;19.60;99.90
27619;DHT22;15039;50.830;4.730;2022-07-29T07:37:27;19.80;99.90
27619;DHT22;15039;50.830;4.730;2022-07-29T07:39:53;19.70;99.90
27619;DHT22;15039;50.830;4.730;2022-07-29T07:42:19;19.90;99.90
27619;DHT22;15039;50.830;4.730;2022-07-29T07:44:45;20.00;99.90
27619;DHT22;15039;50.830;4.730;2022-07-29T07:47:12;20.10;99.90
27619;DHT22;15039;50.830;4.730;2022-07-29T07:49:38;20.10;99.90
27619;DHT22;15039;50.830;4.730;2022-07-29T07:52:04;20.20;99.90
27619;DHT22;15039;50.830;4.730;2022-07-29T07:54:30;20.20;99.90
27619;DHT22;15039;50.830;4.730;2022-07-29T07:56:56;20.10;99.90
27619;DHT22;15039;50.830;4.730;2022-07-29T07:59:22;20.20;99.90
27619;DHT22;15039;50.830;4.730;2022-07-29T08:01:49;20.40;99.90
27619;DHT22;15039;50.830;4.730;2022-07-29T08:04:14;20.50;99.90
27619;DHT22;15039;50.830;4.730;2022-07-29T08:06:40;20.50;99.90
27619;DHT22;15039;50.830;4.730;2022-07-29T08:09:06;20.50;99.90
27619;DHT22;15039;50.830;4.730;2022-07-29T08:11:32;20.60;99.90
27619;DHT22;15039;50.830;4.730;2022-07-29T08:13:57;20.60;99.90
27619;DHT22;15039;50.830;4.730;2022-07-29T08:16:24;20.80;99.90
27619;DHT22;15039;50.830;4.730;2022-07-29T08:18:50;20.90;99.90
27619;DHT22;15039;50.830;4.730;2022-07-29T08:21:17;21.10;99.90
27619;DHT22;15039;50.830;4.730;2022-07-29T08:23:44;20.90;99.90
27619;DHT22;15039;50.830;4.730;2022-07-29T08:26:19;21.30;99.90
27619;DHT22;15039;50.830;4.730;2022-07-29T08:28:45;21.40;99.90
27619;DHT22;15039;50.830;4.730;2022-07-29T08:31:12;21.50;99.90
27619;DHT22;15039;50.830;4.730;2022-07-29T08:33:38;21.60;99.90
27619;DHT22;15039;50.830;4.730;2022-07-29T08:36:05;21.70;99.90
27619;DHT22;15039;50.830;4.730;2022-07-29T08:38:31;21.80;99.90
27619;DHT22;15039;50.830;4.730;2022-07-29T08:40:58;21.90;99.90
27619;DHT22;15039;50.830;4.730;2022-07-29T08:43:25;22.20;99.80
27619;DHT22;15039;50.830;4.730;2022-07-29T08:45:51;22.20;99.30
27619;DHT22;15039;50.830;4.730;2022-07-29T08:48:19;22.10;99.00
27619;DHT22;15039;50.830;4.730;2022-07-29T08:50:46;22.10;98.80
27619;DHT22;15039;50.830;4.730;2022-07-29T08:53:14;22.00;99.40
27619;DHT22;15039;50.830;4.730;2022-07-29T08:55:42;22.10;99.00
27619;DHT22;15039;50.830;4.730;2022-07-29T08:58:09;22.30;99.10
27619;DHT22;15039;50.830;4.730;2022-07-29T09:00:37;22.30;99.10
27619;DHT22;15039;50.830;4.730;2022-07-29T09:03:05;22.50;98.50
27619;DHT22;15039;50.830;4.730;2022-07-29T09:05:32;22.60;98.30
27619;DHT22;15039;50.830;4.730;2022-07-29T09:07:59;22.70;98.30
27619;DHT22;15039;50.830;4.730;2022-07-29T09:10:25;22.70;98.20
27619;DHT22;15039;50.830;4.730;2022-07-29T09:12:51;22.40;98.50
27619;DHT22;15039;50.830;4.730;2022-07-29T09:15:17;22.60;98.30
27619;DHT22;15039;50.830;4.730;2022-07-29T09:17:46;22.40;98.80
27619;DHT22;15039;50.830;4.730;2022-07-29T09:20:17;22.60;98.80
27619;DHT22;15039;50.830;4.730;2022-07-29T09:22:44;22.70;98.70
27619;DHT22;15039;50.830;4.730;2022-07-29T09:25:15;22.60;98.70
27619;DHT22;15039;50.830;4.730;2022-07-29T09:28:08;22.70;98.40
27619;DHT22;15039;50.830;4.730;2022-07-29T09:30:35;22.80;98.10
27619;DHT22;15039;50.830;4.730;2022-07-29T09:33:02;22.90;98.20
27619;DHT22;15039;50.830;4.730;2022-07-29T09:35:30;23.00;97.80
27619;DHT22;15039;50.830;4.730;2022-07-29T09:37:56;22.80;97.60
27619;DHT22;15039;50.830;4.730;2022-07-29T09:40:23;22.90;97.90
27619;DHT22;15039;50.830;4.730;2022-07-29T09:42:49;23.10;97.80
27619;DHT22;15039;50.830;4.730;2022-07-29T09:45:30;23.10;97.40
27619;DHT22;15039;50.830;4.730;2022-07-29T09:47:56;23.10;96.70
27619;DHT22;15039;50.830;4.730;2022-07-29T09:50:39;23.00;97.10
27619;DHT22;15039;50.830;4.730;2022-07-29T09:53:05;23.10;96.80
27619;DHT22;15039;50.830;4.730;2022-07-29T09:55:31;23.20;96.80
27619;DHT22;15039;50.830;4.730;2022-07-29T09:58:18;23.30;97.10
27619;DHT22;15039;50.830;4.730;2022-07-29T10:00:45;23.40;96.80
27619;DHT22;15039;50.830;4.730;2022-07-29T10:03:11;23.40;96.60
27619;DHT22;15039;50.830;4.730;2022-07-29T10:05:37;23.50;96.20
27619;DHT22;15039;50.830;4.730;2022-07-29T10:08:03;23.60;96.60
27619;DHT22;15039;50.830;4.730;2022-07-29T10:10:32;23.60;96.10
27619;DHT22;15039;50.830;4.730;2022-07-29T10:15:30;23.50;96.30
27619;DHT22;15039;50.830;4.730;2022-07-29T10:17:58;23.60;95.70
27619;DHT22;15039;50.830;4.730;2022-07-29T10:20:24;23.60;95.90
27619;DHT22;15039;50.830;4.730;2022-07-29T10:22:51;23.60;96.20
27619;DHT22;15039;50.830;4.730;2022-07-29T10:25:18;23.70;95.90
27619;DHT22;15039;50.830;4.730;2022-07-29T10:27:45;23.80;95.80
27619;DHT22;15039;50.830;4.730;2022-07-29T10:30:12;23.90;95.90
27619;DHT22;15039;50.830;4.730;2022-07-29T10:35:39;23.80;96.10
27619;DHT22;15039;50.830;4.730;2022-07-29T10:38:10;23.80;96.00
27619;DHT22;15039;50.830;4.730;2022-07-29T10:43:40;23.90;95.90
27619;DHT22;15039;50.830;4.730;2022-07-29T10:46:07;24.20;95.40
27619;DHT22;15039;50.830;4.730;2022-07-29T10:48:33;24.40;95.60
27619;DHT22;15039;50.830;4.730;2022-07-29T10:51:04;24.60;95.40
27619;DHT22;15039;50.830;4.730;2022-07-29T10:53:50;24.70;95.20
27619;DHT22;15039;50.830;4.730;2022-07-29T10:56:27;24.70;94.60
27619;DHT22;15039;50.830;4.730;2022-07-29T11:01:45;24.70;94.50
27619;DHT22;15039;50.830;4.730;2022-07-29T11:04:11;24.70;94.60
27619;DHT22;15039;50.830;4.730;2022-07-29T11:09:30;24.70;94.10
27619;DHT22;15039;50.830;4.730;2022-07-29T11:11:59;24.80;94.20
27619;DHT22;15039;50.830;4.730;2022-07-29T11:17:09;25.10;94.00
27619;DHT22;15039;50.830;4.730;2022-07-29T11:19:35;25.00;94.20
27619;DHT22;15039;50.830;4.730;2022-07-29T11:22:01;24.90;94.20
27619;DHT22;15039;50.830;4.730;2022-07-29T11:24:29;24.80;94.10
27619;DHT22;15039;50.830;4.730;2022-07-29T11:27:16;25.00;93.80
27619;DHT22;15039;50.830;4.730;2022-07-29T11:29:51;25.10;94.00
27619;DHT22;15039;50.830;4.730;2022-07-29T11:32:18;25.20;93.40
27619;DHT22;15039;50.830;4.730;2022-07-29T11:34:48;25.30;93.60
27619;DHT22;15039;50.830;4.730;2022-07-29T11:37:18;25.40;92.70
27619;DHT22;15039;50.830;4.730;2022-07-29T11:39:45;25.40;93.10
27619;DHT22;15039;50.830;4.730;2022-07-29T11:45:05;25.10;93.20
27619;DHT22;15039;50.830;4.730;2022-07-29T11:47:51;25.20;92.50
27619;DHT22;15039;50.830;4.730;2022-07-29T11:50:47;25.50;92.40
27619;DHT22;15039;50.830;4.730;2022-07-29T11:53:13;25.60;92.70
27619;DHT22;15039;50.830;4.730;2022-07-29T11:55:40;25.70;92.50
27619;DHT22;15039;50.830;4.730;2022-07-29T11:58:07;25.80;92.60
27619;DHT22;15039;50.830;4.730;2022-07-29T12:00:35;26.10;92.40
27619;DHT22;15039;50.830;4.730;2022-07-29T12:03:04;26.10;92.40
27619;DHT22;15039;50.830;4.730;2022-07-29T12:05:36;26.20;92.30
27619;DHT22;15039;50.830;4.730;2022-07-29T12:10:32;25.70;92.50
27619;DHT22;15039;50.830;4.730;2022-07-29T12:12:58;25.70;92.40
27619;DHT22;15039;50.830;4.730;2022-07-29T12:15:23;25.70;92.70
27619;DHT22;15039;50.830;4.730;2022-07-29T12:17:50;26.10;92.50
27619;DHT22;15039;50.830;4.730;2022-07-29T12:20:28;26.10;92.50
27619;DHT22;15039;50.830;4.730;2022-07-29T12:22:54;26.00;92.70
27619;DHT22;15039;50.830;4.730;2022-07-29T12:25:22;26.40;92.60
27619;DHT22;15039;50.830;4.730;2022-07-29T12:27:58;26.80;91.90
27619;DHT22;15039;50.830;4.730;2022-07-29T12:30:43;26.90;91.30
27619;DHT22;15039;50.830;4.730;2022-07-29T12:33:19;26.90;90.70
27619;DHT22;15039;50.830;4.730;2022-07-29T12:35:54;26.70;90.90
27619;DHT22;15039;50.830;4.730;2022-07-29T12:38:22;26.80;90.90
27619;DHT22;15039;50.830;4.730;2022-07-29T12:40:49;26.70;90.40
27619;DHT22;15039;50.830;4.730;2022-07-29T12:43:18;26.70;90.50
27619;DHT22;15039;50.830;4.730;2022-07-29T12:45:47;26.80;90.60
27619;DHT22;15039;50.830;4.730;2022-07-29T12:48:13;27.10;90.80
27619;DHT22;15039;50.830;4.730;2022-07-29T12:50:57;27.00;90.50
27619;DHT22;15039;50.830;4.730;2022-07-29T12:53:24;27.00;90.70
27619;DHT22;15039;50.830;4.730;2022-07-29T12:55:51;26.80;90.60
27619;DHT22;15039;50.830;4.730;2022-07-29T12:58:34;26.90;90.70
27619;DHT22;15039;50.830;4.730;2022-07-29T13:01:06;26.90;90.50
27619;DHT22;15039;50.830;4.730;2022-07-29T13:04:01;26.70;90.30
27619;DHT22;15039;50.830;4.730;2022-07-29T13:06:39;26.70;90.40
27619;DHT22;15039;50.830;4.730;2022-07-29T13:09:11;26.90;90.80
27619;DHT22;15039;50.830;4.730;2022-07-29T13:11:40;27.10;90.10
27619;DHT22;15039;50.830;4.730;2022-07-29T13:14:08;27.20;90.30
27619;DHT22;15039;50.830;4.730;2022-07-29T13:16:35;27.10;90.40
27619;DHT22;15039;50.830;4.730;2022-07-29T13:19:07;27.30;90.20
27619;DHT22;15039;50.830;4.730;2022-07-29T13:21:33;27.20;90.40
27619;DHT22;15039;50.830;4.730;2022-07-29T13:23:59;27.30;90.00
27619;DHT22;15039;50.830;4.730;2022-07-29T13:26:25;27.10;89.90
27619;DHT22;15039;50.830;4.730;2022-07-29T13:28:51;27.10;90.00
27619;DHT22;15039;50.830;4.730;2022-07-29T13:31:17;27.00;90.20
27619;DHT22;15039;50.830;4.730;2022-07-29T13:33:42;27.20;90.00
27619;DHT22;15039;50.830;4.730;2022-07-29T13:36:08;27.50;89.60
27619;DHT22;15039;50.830;4.730;2022-07-29T13:38:33;27.60;88.60
27619;DHT22;15039;50.830;4.730;2022-07-29T13:40:59;27.60;88.90
27619;DHT22;15039;50.830;4.730;2022-07-29T13:43:25;27.50;88.50
27619;DHT22;15039;50.830;4.730;2022-07-29T13:45:51;27.40;88.30
27619;DHT22;15039;50.830;4.730;2022-07-29T13:48:17;27.20;88.00
27619;DHT22;15039;50.830;4.730;2022-07-29T13:50:43;26.90;88.80
27619;DHT22;15039;50.830;4.730;2022-07-29T13:53:08;26.90;88.90
27619;DHT22;15039;50.830;4.730;2022-07-29T13:55:34;27.10;90.10
27619;DHT22;15039;50.830;4.730;2022-07-29T13:58:00;27.20;89.40
27619;DHT22;15039;50.830;4.730;2022-07-29T14:00:25;27.50;87.90
27619;DHT22;15039;50.830;4.730;2022-07-29T14:02:51;27.60;87.70
27619;DHT22;15039;50.830;4.730;2022-07-29T14:05:17;27.70;86.50
27619;DHT22;15039;50.830;4.730;2022-07-29T14:07:43;27.40;86.30
27619;DHT22;15039;50.830;4.730;2022-07-29T14:10:09;27.60;87.50
27619;DHT22;15039;50.830;4.730;2022-07-29T14:12:35;27.90;86.30
27619;DHT22;15039;50.830;4.730;2022-07-29T14:15:01;27.90;86.30
27619;DHT22;15039;50.830;4.730;2022-07-29T14:17:27;28.00;85.60
27619;DHT22;15039;50.830;4.730;2022-07-29T14:19:52;27.80;83.80
27619;DHT22;15039;50.830;4.730;2022-07-29T14:22:18;27.60;85.70
27619;DHT22;15039;50.830;4.730;2022-07-29T14:24:45;27.50;86.30
27619;DHT22;15039;50.830;4.730;2022-07-29T14:27:11;27.30;86.60
27619;DHT22;15039;50.830;4.730;2022-07-29T14:29:37;27.10;86.30
27619;DHT22;15039;50.830;4.730;2022-07-29T14:32:03;26.90;86.20
27619;DHT22;15039;50.830;4.730;2022-07-29T14:34:29;26.80;86.10
27619;DHT22;15039;50.830;4.730;2022-07-29T14:36:54;26.70;87.10
27619;DHT22;15039;50.830;4.730;2022-07-29T14:39:21;26.70;88.00
27619;DHT22;15039;50.830;4.730;2022-07-29T14:41:49;26.70;88.40
27619;DHT22;15039;50.830;4.730;2022-07-29T14:44:14;26.80;88.40
27619;DHT22;15039;50.830;4.730;2022-07-29T14:46:40;26.80;88.70
27619;DHT22;15039;50.830;4.730;2022-07-29T14:49:06;26.70;89.10
27619;DHT22;15039;50.830;4.730;2022-07-29T14:51:32;26.70;88.80
27619;DHT22;15039;50.830;4.730;2022-07-29T14:53:58;26.60;89.00
27619;DHT22;15039;50.830;4.730;2022-07-29T14:56:23;26.40;89.20
27619;DHT22;15039;50.830;4.730;2022-07-29T14:58:49;26.50;89.00
27619;DHT22;15039;50.830;4.730;2022-07-29T15:01:15;26.50;90.00
27619;DHT22;15039;50.830;4.730;2022-07-29T15:03:40;26.60;88.80
27619;DHT22;15039;50.830;4.730;2022-07-29T15:06:06;26.70;88.70
27619;DHT22;15039;50.830;4.730;2022-07-29T15:08:31;26.80;88.50
27619;DHT22;15039;50.830;4.730;2022-07-29T15:10:57;27.00;87.40
27619;DHT22;15039;50.830;4.730;2022-07-29T15:13:25;27.30;86.60
27619;DHT22;15039;50.830;4.730;2022-07-29T15:15:51;27.70;87.80
27619;DHT22;15039;50.830;4.730;2022-07-29T15:18:17;27.60;85.70
27619;DHT22;15039;50.830;4.730;2022-07-29T15:20:43;27.50;86.90
27619;DHT22;15039;50.830;4.730;2022-07-29T15:23:11;27.50;86.10
27619;DHT22;15039;50.830;4.730;2022-07-29T15:25:38;27.50;86.70
27619;DHT22;15039;50.830;4.730;2022-07-29T15:28:03;27.40;86.10
27619;DHT22;15039;50.830;4.730;2022-07-29T15:30:33;27.10;87.10
27619;DHT22;15039;50.830;4.730;2022-07-29T15:33:00;27.00;87.10
27619;DHT22;15039;50.830;4.730;2022-07-29T15:35:25;27.00;86.80
27619;DHT22;15039;50.830;4.730;2022-07-29T15:37:51;27.10;86.40
27619;DHT22;15039;50.830;4.730;2022-07-29T15:40:17;27.00;86.40
27619;DHT22;15039;50.830;4.730;2022-07-29T15:42:42;27.00;86.30
27619;DHT22;15039;50.830;4.730;2022-07-29T15:45:08;26.90;85.90
27619;DHT22;15039;50.830;4.730;2022-07-29T15:47:37;26.90;86.10
27619;DHT22;15039;50.830;4.730;2022-07-29T15:50:03;27.20;85.80
27619;DHT22;15039;50.830;4.730;2022-07-29T15:52:29;27.20;85.50
27619;DHT22;15039;50.830;4.730;2022-07-29T15:54:55;27.40;85.30
27619;DHT22;15039;50.830;4.730;2022-07-29T15:57:21;27.50;85.60
27619;DHT22;15039;50.830;4.730;2022-07-29T15:59:46;27.60;85.50
27619;DHT22;15039;50.830;4.730;2022-07-29T16:02:12;27.80;84.10
27619;DHT22;15039;50.830;4.730;2022-07-29T16:04:38;27.60;83.10
27619;DHT22;15039;50.830;4.730;2022-07-29T16:07:04;27.30;83.20